createdAt,value
2022-11-07T00:01:18.895Z,7.00
2022-11-07T00:03:46.211Z,7.00
2022-11-07T00:06:13.392Z,7.00
2022-11-07T00:08:40.223Z,6.90
2022-11-07T00:11:07.404Z,6.90
2022-11-07T00:13:34.326Z,6.90
2022-11-07T00:16:03.490Z,7.00
2022-11-07T00:18:30.547Z,6.70
2022-11-07T00:21:08.127Z,6.70
2022-11-07T00:23:35.369Z,6.60
2022-11-07T00:26:07.611Z,6.60
2022-11-07T00:28:36.302Z,6.60
2022-11-07T00:31:03.860Z,6.60
2022-11-07T00:33:30.727Z,6.60
2022-11-07T00:35:57.615Z,6.70
2022-11-07T00:38:24.487Z,6.70
2022-11-07T00:40:56.255Z,6.70
2022-11-07T00:43:23.596Z,6.70
2022-11-07T00:45:50.470Z,7.00
2022-11-07T00:48:17.327Z,6.90
2022-11-07T00:50:44.224Z,7.00
2022-11-07T00:53:11.143Z,6.90
2022-11-07T00:55:38.159Z,6.90
2022-11-07T00:58:07.522Z,6.90
2022-11-07T01:00:37.248Z,6.90
2022-11-07T01:03:23.379Z,7.00
2022-11-07T01:06:01.570Z,6.90
2022-11-07T01:08:29.761Z,6.90
2022-11-07T01:10:57.353Z,7.00
2022-11-07T01:13:24.868Z,7.00
2022-11-07T01:15:51.827Z,7.00
2022-11-07T01:18:18.913Z,7.00
2022-11-07T01:20:45.720Z,7.10
2022-11-07T01:23:12.893Z,7.10
2022-11-07T01:25:40.303Z,7.10
2022-11-07T01:28:08.306Z,7.10
2022-11-07T01:30:39.150Z,7.20
2022-11-07T01:33:06.080Z,7.10
2022-11-07T01:35:33.658Z,7.10
2022-11-07T01:38:00.521Z,7.10
2022-11-07T01:40:27.884Z,7.20
2022-11-07T01:42:54.799Z,7.20
2022-11-07T01:45:31.036Z,7.30
2022-11-07T01:48:01.973Z,7.20
2022-11-07T01:50:30.614Z,7.20
2022-11-07T01:52:58.101Z,7.20
2022-11-07T01:55:32.104Z,7.40
2022-11-07T01:58:06.956Z,7.50
2022-11-07T02:00:35.614Z,7.50
2022-11-07T02:03:09.720Z,7.40
2022-11-07T02:05:53.184Z,7.60
2022-11-07T02:08:21.978Z,7.50
2022-11-07T02:10:49.043Z,7.50
2022-11-07T02:13:25.399Z,7.60
2022-11-07T02:15:52.703Z,7.50
2022-11-07T02:18:19.962Z,7.50
2022-11-07T02:20:47.190Z,7.50
2022-11-07T02:23:26.643Z,7.50
2022-11-07T02:25:54.576Z,7.40
2022-11-07T02:28:23.703Z,7.50
2022-11-07T02:30:50.653Z,7.50
2022-11-07T02:33:19.812Z,7.50
2022-11-07T02:35:49.319Z,7.40
2022-11-07T02:38:34.925Z,7.50
2022-11-07T02:41:07.065Z,7.40
2022-11-07T02:43:37.119Z,7.50
2022-11-07T02:46:07.361Z,7.50
2022-11-07T02:48:45.855Z,7.50
2022-11-07T02:51:13.219Z,7.40
2022-11-07T02:53:40.072Z,7.40
2022-11-07T02:56:07.455Z,7.50
2022-11-07T02:58:34.650Z,7.40
2022-11-07T03:01:03.091Z,7.60
2022-11-07T03:03:30.853Z,7.40
2022-11-07T03:05:57.814Z,7.40
2022-11-07T03:08:24.692Z,7.40
2022-11-07T03:10:51.623Z,7.30
2022-11-07T03:13:18.462Z,7.50
2022-11-07T03:15:45.590Z,7.20
2022-11-07T03:18:12.473Z,7.30
2022-11-07T03:20:39.298Z,7.30
2022-11-07T03:23:06.201Z,7.30
2022-11-07T03:25:33.097Z,7.30
2022-11-07T03:27:59.963Z,7.20
2022-11-07T03:30:26.941Z,7.20
2022-11-07T03:32:54.461Z,7.50
2022-11-07T03:35:21.940Z,7.30
2022-11-07T03:37:49.971Z,7.40
2022-11-07T03:40:17.623Z,7.40
2022-11-07T03:42:45.609Z,7.40
2022-11-07T03:45:14.497Z,7.40
2022-11-07T03:47:43.007Z,7.40
2022-11-07T03:50:12.483Z,7.40
2022-11-07T03:52:39.349Z,7.40
2022-11-07T03:55:06.800Z,7.50
2022-11-07T03:57:33.662Z,7.50
2022-11-07T04:00:00.511Z,7.60
2022-11-07T04:02:27.684Z,7.60
2022-11-07T04:04:54.670Z,7.60
2022-11-07T04:07:21.520Z,7.60
2022-11-07T04:09:48.315Z,7.50
2022-11-07T04:12:33.645Z,7.50
2022-11-07T04:15:18.961Z,7.50
2022-11-07T04:17:45.947Z,7.50
2022-11-07T04:20:12.765Z,7.50
2022-11-07T04:22:39.692Z,7.60
2022-11-07T04:25:07.216Z,7.60
2022-11-07T04:27:42.879Z,7.60
2022-11-07T04:30:30.006Z,7.60
2022-11-07T04:32:59.446Z,7.70
2022-11-07T04:35:29.084Z,7.80
2022-11-07T04:37:55.974Z,7.90
2022-11-07T04:40:22.893Z,8.00
2022-11-07T04:42:49.844Z,7.70
2022-11-07T04:45:17.667Z,7.70
2022-11-07T04:47:44.955Z,7.70
2022-11-07T04:50:14.145Z,7.60
2022-11-07T04:52:41.286Z,7.70
2022-11-07T04:55:10.411Z,7.60
2022-11-07T04:57:37.279Z,7.70
2022-11-07T05:00:04.858Z,7.90
2022-11-07T05:02:31.850Z,7.80
2022-11-07T05:04:58.736Z,7.70
2022-11-07T05:07:25.677Z,7.70
2022-11-07T05:09:52.605Z,7.70
2022-11-07T05:12:19.468Z,7.80
2022-11-07T05:14:46.309Z,7.70
2022-11-07T05:17:17.111Z,7.70
2022-11-07T05:19:44.009Z,7.70
2022-11-07T05:22:29.833Z,7.60
2022-11-07T05:24:56.681Z,7.70
2022-11-07T05:27:24.281Z,7.70
2022-11-07T05:29:52.222Z,7.60
2022-11-07T05:32:19.409Z,7.40
2022-11-07T05:34:46.319Z,7.40
2022-11-07T05:37:13.648Z,7.50
2022-11-07T05:39:40.622Z,7.50
2022-11-07T05:42:07.654Z,7.50
2022-11-07T05:44:34.560Z,7.50
2022-11-07T05:47:01.534Z,7.50
2022-11-07T05:49:28.699Z,7.40
2022-11-07T05:51:55.540Z,7.40
2022-11-07T05:54:23.510Z,7.40
2022-11-07T05:56:50.509Z,7.40
2022-11-07T05:59:17.392Z,7.50
2022-11-07T06:01:47.656Z,7.70
2022-11-07T06:04:16.992Z,7.50
2022-11-07T06:06:43.952Z,7.50
2022-11-07T06:09:10.811Z,7.50
2022-11-07T06:11:37.953Z,7.50
2022-11-07T06:14:04.836Z,7.50
2022-11-07T06:16:31.755Z,7.50
2022-11-07T06:18:58.598Z,7.50
2022-11-07T06:21:25.472Z,7.80
2022-11-07T06:23:52.346Z,7.60
2022-11-07T06:26:19.191Z,7.50
2022-11-07T06:28:46.042Z,7.50
2022-11-07T06:31:14.529Z,7.40
2022-11-07T06:33:41.408Z,7.40
2022-11-07T06:36:11.101Z,7.50
2022-11-07T06:38:39.396Z,7.50
2022-11-07T06:41:15.040Z,7.60
2022-11-07T06:43:42.370Z,7.50
2022-11-07T06:46:13.184Z,7.60
2022-11-07T06:48:40.145Z,7.70
2022-11-07T06:51:07.839Z,7.70
2022-11-07T06:53:34.766Z,7.60
2022-11-07T06:56:03.521Z,7.60
2022-11-07T06:58:30.506Z,7.60
2022-11-07T07:01:05.686Z,7.70
2022-11-07T07:03:32.727Z,7.80
2022-11-07T07:06:05.142Z,7.80
2022-11-07T07:08:32.619Z,7.80
2022-11-07T07:11:04.416Z,7.70
2022-11-07T07:13:31.424Z,7.80
2022-11-07T07:15:58.757Z,7.80
2022-11-07T07:18:26.869Z,7.90
2022-11-07T07:21:02.139Z,7.70
2022-11-07T07:23:29.044Z,7.60
2022-11-07T07:25:55.901Z,7.70
2022-11-07T07:28:22.774Z,7.70
2022-11-07T07:30:52.135Z,7.80
2022-11-07T07:33:20.156Z,7.80
2022-11-07T07:35:47.037Z,7.80
2022-11-07T07:38:13.967Z,7.80
2022-11-07T07:40:40.785Z,7.90
2022-11-07T07:43:08.103Z,8.00
2022-11-07T07:45:34.967Z,7.90
2022-11-07T07:48:02.831Z,8.00
2022-11-07T07:50:30.026Z,8.10
2022-11-07T07:53:01.596Z,8.20
2022-11-07T07:55:31.952Z,8.30
2022-11-07T07:57:58.848Z,8.40
2022-11-07T08:00:25.692Z,8.50
2022-11-07T08:03:00.906Z,8.40
2022-11-07T08:05:27.861Z,8.50
2022-11-07T08:07:54.985Z,8.50
2022-11-07T08:13:08.645Z,8.60
2022-11-07T08:15:35.505Z,8.70
2022-11-07T08:18:03.549Z,8.60
2022-11-07T08:20:30.458Z,8.60
2022-11-07T08:23:02.339Z,8.60
2022-11-07T08:25:29.401Z,8.60
2022-11-07T08:27:56.336Z,8.70
2022-11-07T08:30:23.166Z,8.70
2022-11-07T08:32:50.047Z,8.60
2022-11-07T08:35:16.921Z,8.60
2022-11-07T08:37:43.798Z,8.70
2022-11-07T08:40:11.335Z,8.70
2022-11-07T08:42:38.226Z,8.70
2022-11-07T08:45:05.583Z,8.90
2022-11-07T08:47:32.437Z,9.10
2022-11-07T08:49:59.279Z,9.10
2022-11-07T08:52:26.153Z,9.20
2022-11-07T08:54:52.981Z,9.20
2022-11-07T08:57:19.858Z,9.10
2022-11-07T08:59:46.722Z,9.30
2022-11-07T09:05:00.622Z,9.30
2022-11-07T09:07:27.524Z,9.20
2022-11-07T09:09:54.474Z,9.30
2022-11-07T09:12:21.333Z,9.30
2022-11-07T09:14:48.229Z,9.30
2022-11-07T09:17:15.084Z,9.40
2022-11-07T09:19:41.984Z,9.70
2022-11-07T09:22:08.899Z,9.60
2022-11-07T09:24:35.758Z,9.60
2022-11-07T09:27:02.663Z,9.60
2022-11-07T09:29:29.539Z,9.60
2022-11-07T09:31:56.452Z,9.70
2022-11-07T09:34:23.292Z,9.60
2022-11-07T09:36:50.184Z,9.80
2022-11-07T09:39:17.082Z,9.70
2022-11-07T09:41:51.574Z,9.70
2022-11-07T09:44:37.653Z,9.80
2022-11-07T09:47:23.242Z,9.70
2022-11-07T09:49:52.646Z,9.90
2022-11-07T09:52:22.462Z,9.80
2022-11-07T09:54:55.872Z,9.90
2022-11-07T09:57:23.886Z,9.80
2022-11-07T09:59:57.511Z,9.90
2022-11-07T10:02:30.892Z,9.90
2022-11-07T10:05:01.030Z,9.90
2022-11-07T10:07:37.006Z,9.90
2022-11-07T10:10:14.825Z,10.00
2022-11-07T10:13:14.925Z,10.00
2022-11-07T10:15:53.825Z,10.00
2022-11-07T10:18:26.493Z,10.10
2022-11-07T10:21:35.979Z,10.20
2022-11-07T10:23:57.827Z,10.20
2022-11-07T10:26:27.179Z,10.30
2022-11-07T10:29:10.395Z,10.40
2022-11-07T10:31:42.507Z,10.40
2022-11-07T10:34:22.049Z,10.60
2022-11-07T10:36:48.993Z,10.70
2022-11-07T10:39:18.983Z,10.50
2022-11-07T10:42:10.892Z,10.80
2022-11-07T10:44:42.058Z,10.70
2022-11-07T10:47:22.122Z,10.70
2022-11-07T10:49:56.369Z,10.70
2022-11-07T10:52:23.325Z,10.80
2022-11-07T10:54:50.288Z,10.80
2022-11-07T10:57:20.302Z,10.80
2022-11-07T10:59:53.163Z,10.90
2022-11-07T11:02:21.808Z,10.90
2022-11-07T11:04:51.746Z,11.10
2022-11-07T11:07:21.813Z,11.10
2022-11-07T11:09:58.536Z,11.00
2022-11-07T11:12:30.615Z,11.10
2022-11-07T11:15:31.232Z,11.20
2022-11-07T11:18:06.782Z,11.20
2022-11-07T11:20:58.614Z,11.20
2022-11-07T11:23:29.158Z,11.20
2022-11-07T11:26:06.985Z,11.20
2022-11-07T11:28:48.265Z,11.20
2022-11-07T11:31:18.568Z,11.20
2022-11-07T11:33:49.278Z,11.00
2022-11-07T11:36:27.803Z,11.30
2022-11-07T11:38:55.033Z,11.10
2022-11-07T11:41:25.566Z,11.10
2022-11-07T11:43:58.943Z,11.20
2022-11-07T11:46:44.666Z,11.20
2022-11-07T11:49:46.310Z,11.20
2022-11-07T11:52:17.389Z,11.20
2022-11-07T11:54:46.077Z,11.40
2022-11-07T11:57:37.900Z,11.40
2022-11-07T12:00:10.110Z,11.30
2022-11-07T12:03:02.017Z,11.30
2022-11-07T12:05:57.655Z,11.30
2022-11-07T12:08:45.766Z,11.30
2022-11-07T12:11:52.130Z,11.30
2022-11-07T12:14:41.638Z,11.30
2022-11-07T12:17:15.460Z,11.20
2022-11-07T12:20:24.486Z,11.20
2022-11-07T12:23:18.870Z,11.20
2022-11-07T12:26:03.698Z,11.20
2022-11-07T12:28:52.879Z,11.30
2022-11-07T12:31:52.654Z,11.30
2022-11-07T12:35:03.422Z,11.30
2022-11-07T12:37:52.502Z,11.30
2022-11-07T12:40:31.451Z,11.20
2022-11-07T12:43:22.503Z,11.20
2022-11-07T12:46:01.063Z,11.20
2022-11-07T12:49:11.048Z,11.20
2022-11-07T12:51:53.057Z,11.20
2022-11-07T12:54:22.664Z,11.30
2022-11-07T12:56:51.052Z,11.20
2022-11-07T12:59:30.948Z,11.20
2022-11-07T13:02:19.041Z,11.20
2022-11-07T13:04:51.731Z,11.20
2022-11-07T13:07:39.892Z,11.20
2022-11-07T13:10:53.451Z,11.30
2022-11-07T13:13:39.116Z,11.30
2022-11-07T13:16:21.055Z,11.20
2022-11-07T13:18:47.921Z,11.30
2022-11-07T13:21:14.734Z,11.20
2022-11-07T13:23:41.733Z,11.30
2022-11-07T13:26:32.447Z,11.20
2022-11-07T13:29:00.922Z,11.20
2022-11-07T13:31:32.236Z,11.10
2022-11-07T13:34:39.243Z,11.10
2022-11-07T13:37:06.171Z,11.10
2022-11-07T13:39:33.482Z,11.10
2022-11-07T13:42:01.249Z,11.30
2022-11-07T13:44:37.345Z,11.00
2022-11-07T13:47:11.752Z,11.10
2022-11-07T13:49:45.690Z,11.20
2022-11-07T13:52:41.572Z,11.20
2022-11-07T13:55:19.939Z,11.20
2022-11-07T13:57:56.337Z,11.20
2022-11-07T14:00:23.559Z,11.30
2022-11-07T14:02:53.812Z,11.20
2022-11-07T14:05:24.008Z,11.20
2022-11-07T14:08:25.632Z,11.20
2022-11-07T14:10:53.232Z,11.20
2022-11-07T14:13:34.660Z,11.10
2022-11-07T14:16:18.916Z,11.30
2022-11-07T14:19:17.555Z,11.30
2022-11-07T14:21:46.642Z,11.30
2022-11-07T14:24:21.305Z,11.30
2022-11-07T14:26:58.532Z,11.10
2022-11-07T14:29:25.405Z,11.10
2022-11-07T14:31:52.207Z,11.10
2022-11-07T14:34:21.588Z,11.10
2022-11-07T14:36:52.775Z,11.30
2022-11-07T14:39:22.575Z,11.20
2022-11-07T14:41:50.889Z,11.10
2022-11-07T14:44:36.288Z,11.00
2022-11-07T14:47:28.844Z,11.00
2022-11-07T14:49:56.700Z,11.10
2022-11-07T14:52:34.569Z,11.10
2022-11-07T14:55:20.935Z,11.00
2022-11-07T14:57:48.201Z,11.10
2022-11-07T15:00:17.860Z,11.10
2022-11-07T15:02:48.044Z,11.10
2022-11-07T15:05:24.497Z,11.20
2022-11-07T15:07:51.439Z,11.10
2022-11-07T15:10:34.487Z,11.00
2022-11-07T15:13:04.299Z,11.00
2022-11-07T15:15:35.967Z,10.90
2022-11-07T15:18:07.062Z,11.00
2022-11-07T15:20:37.171Z,10.90
2022-11-07T15:23:24.276Z,10.90
2022-11-07T15:25:58.339Z,10.90
2022-11-07T15:28:28.181Z,10.90
2022-11-07T15:30:59.932Z,10.80
2022-11-07T15:33:30.995Z,10.70
2022-11-07T15:36:00.168Z,10.70
2022-11-07T15:38:28.674Z,10.40
2022-11-07T15:40:55.615Z,10.50
2022-11-07T15:43:22.757Z,10.40
2022-11-07T15:45:51.568Z,10.30
2022-11-07T15:48:21.460Z,10.30
2022-11-07T15:50:49.743Z,10.20
2022-11-07T15:53:24.798Z,10.10
2022-11-07T15:55:59.806Z,10.30
2022-11-07T15:58:29.162Z,10.30
2022-11-07T16:00:58.539Z,10.30
2022-11-07T16:03:27.341Z,10.30
2022-11-07T16:05:58.041Z,10.20
2022-11-07T16:08:25.584Z,10.30
2022-11-07T16:10:55.632Z,10.20
2022-11-07T16:13:22.649Z,10.20
2022-11-07T16:15:53.351Z,10.20
2022-11-07T16:18:21.981Z,10.20
2022-11-07T16:20:50.397Z,10.10
2022-11-07T16:23:18.298Z,10.30
2022-11-07T16:25:48.291Z,10.10
2022-11-07T16:28:24.184Z,10.10
2022-11-07T16:30:51.881Z,10.20
2022-11-07T16:33:19.252Z,10.20
2022-11-07T16:35:49.326Z,10.40
2022-11-07T16:38:18.639Z,10.10
2022-11-07T16:40:46.461Z,10.10
2022-11-07T16:43:13.536Z,10.20
2022-11-07T16:45:50.890Z,10.20
2022-11-07T16:48:26.931Z,10.10
2022-11-07T16:50:55.202Z,9.90
2022-11-07T16:53:22.723Z,9.90
2022-11-07T16:55:53.937Z,10.00
2022-11-07T16:58:27.940Z,10.00
2022-11-07T17:00:56.634Z,10.00
2022-11-07T17:03:24.570Z,9.90
2022-11-07T17:05:56.185Z,9.90
2022-11-07T17:08:26.463Z,9.90
2022-11-07T17:10:53.655Z,9.80
2022-11-07T17:13:22.093Z,9.80
2022-11-07T17:15:49.444Z,9.70
2022-11-07T17:18:21.708Z,9.90
2022-11-07T17:20:51.690Z,9.80
2022-11-07T17:23:23.927Z,9.60
2022-11-07T17:25:54.610Z,9.60
2022-11-07T17:28:22.649Z,9.40
2022-11-07T17:30:49.535Z,9.40
2022-11-07T17:33:16.460Z,9.50
2022-11-07T17:35:43.523Z,9.40
2022-11-07T17:38:16.705Z,9.40
2022-11-07T17:40:44.165Z,9.60
2022-11-07T17:43:10.913Z,9.60
2022-11-07T17:45:37.860Z,9.40
2022-11-07T17:48:05.099Z,9.50
2022-11-07T17:50:32.025Z,9.40
2022-11-07T17:52:58.829Z,9.30
2022-11-07T17:55:25.848Z,9.30
2022-11-07T17:57:52.777Z,9.30
2022-11-07T18:00:22.424Z,9.20
2022-11-07T18:02:50.969Z,9.20
2022-11-07T18:05:20.271Z,9.30
2022-11-07T18:07:47.278Z,9.30
2022-11-07T18:10:15.509Z,9.50
2022-11-07T18:12:42.740Z,9.60
2022-11-07T18:15:12.884Z,9.60
2022-11-07T18:17:41.283Z,9.50
2022-11-07T18:20:09.686Z,9.40
2022-11-07T18:22:37.288Z,9.30
2022-11-07T18:25:06.609Z,9.20
2022-11-07T18:27:33.455Z,9.30
2022-11-07T18:30:00.467Z,9.30
2022-11-07T18:32:34.667Z,9.40
2022-11-07T18:35:04.441Z,9.40
2022-11-07T18:37:31.593Z,9.30
2022-11-07T18:39:58.444Z,9.20
2022-11-07T18:42:25.285Z,9.10
2022-11-07T18:44:52.248Z,9.10
2022-11-07T18:47:19.185Z,9.00
2022-11-07T18:49:46.024Z,9.10
2022-11-07T18:52:13.482Z,9.00
2022-11-07T18:54:40.456Z,8.90
2022-11-07T18:57:07.361Z,9.00
2022-11-07T18:59:34.304Z,9.10
2022-11-07T19:02:01.250Z,9.00
2022-11-07T19:04:28.213Z,9.10
2022-11-07T19:06:57.926Z,9.20
2022-11-07T19:09:28.361Z,9.00
2022-11-07T19:11:56.151Z,9.10
2022-11-07T19:14:22.957Z,9.00
2022-11-07T19:16:50.234Z,9.00
2022-11-07T19:19:17.054Z,8.90
2022-11-07T19:21:44.338Z,8.90
2022-11-07T19:24:12.825Z,9.10
2022-11-07T19:26:39.888Z,9.00
2022-11-07T19:29:09.305Z,8.90
2022-11-07T19:31:37.236Z,9.00
2022-11-07T19:34:05.007Z,8.80
2022-11-07T19:36:32.227Z,8.70
2022-11-07T19:38:59.078Z,8.80
2022-11-07T19:41:26.051Z,8.80
2022-11-07T19:43:52.921Z,8.90
2022-11-07T19:46:22.360Z,8.70
2022-11-07T19:48:50.181Z,8.60
2022-11-07T19:51:22.151Z,8.70
2022-11-07T19:53:57.116Z,8.60
2022-11-07T19:56:25.822Z,8.50
2022-11-07T19:58:52.897Z,8.70
2022-11-07T20:01:23.425Z,8.50
2022-11-07T20:03:52.417Z,8.50
2022-11-07T20:06:22.941Z,8.60
2022-11-07T20:08:50.123Z,8.70
2022-11-07T20:11:19.545Z,8.50
2022-11-07T20:13:46.539Z,8.60
2022-11-07T20:16:13.399Z,8.40
2022-11-07T20:18:40.835Z,8.50
2022-11-07T20:21:12.997Z,8.50
2022-11-07T20:23:44.085Z,8.50
2022-11-07T20:26:17.088Z,8.70
2022-11-07T20:28:45.413Z,8.60
2022-11-07T20:31:17.633Z,8.70
2022-11-07T20:33:44.617Z,8.70
2022-11-07T20:36:13.547Z,8.70
2022-11-07T20:38:41.343Z,8.90
2022-11-07T20:41:08.246Z,8.60
2022-11-07T20:43:35.452Z,8.50
2022-11-07T20:46:05.422Z,8.40
2022-11-07T20:48:32.384Z,8.30
2022-11-07T20:51:05.933Z,8.50
2022-11-07T20:53:32.689Z,8.40
2022-11-07T20:56:05.277Z,8.40
2022-11-07T20:58:33.616Z,8.50
2022-11-07T21:01:00.687Z,8.50
2022-11-07T21:03:27.887Z,8.60
2022-11-07T21:05:55.177Z,8.50
2022-11-07T21:08:22.123Z,8.40
2022-11-07T21:10:51.154Z,8.50
2022-11-07T21:13:18.880Z,8.30
2022-11-07T21:15:49.724Z,8.20
2022-11-07T21:18:16.699Z,8.10
2022-11-07T21:20:43.506Z,8.00
2022-11-07T21:23:11.333Z,7.80
2022-11-07T21:25:43.103Z,7.70
2022-11-07T21:28:11.159Z,7.70
2022-11-07T21:30:39.829Z,7.70
2022-11-07T21:33:06.672Z,7.50
2022-11-07T21:35:33.858Z,7.40
2022-11-07T21:38:00.697Z,7.40
2022-11-07T21:40:27.578Z,7.50
2022-11-07T21:42:55.019Z,7.40
2022-11-07T21:45:22.539Z,7.50
2022-11-07T21:47:49.388Z,7.50
2022-11-07T21:50:43.112Z,7.40
2022-11-07T21:53:05.516Z,7.60
2022-11-07T21:55:32.360Z,7.50
2022-11-07T21:57:59.274Z,7.60
2022-11-07T22:00:26.117Z,7.80
2022-11-07T22:02:52.903Z,7.80
2022-11-07T22:05:19.746Z,7.80
2022-11-07T22:07:46.566Z,7.60
2022-11-07T22:10:13.446Z,7.60
2022-11-07T22:12:40.274Z,7.20
2022-11-07T22:15:07.534Z,7.50
2022-11-07T22:17:34.460Z,7.70
2022-11-07T22:20:01.351Z,7.50
2022-11-07T22:22:28.138Z,7.50
2022-11-07T22:24:54.938Z,7.20
2022-11-07T22:27:23.333Z,7.20
2022-11-07T22:29:50.389Z,7.10
2022-11-07T22:32:17.251Z,6.80
2022-11-07T22:34:44.691Z,6.90
2022-11-07T22:37:11.500Z,6.90
2022-11-07T22:39:38.327Z,7.10
2022-11-07T22:42:05.352Z,7.00
2022-11-07T22:44:32.214Z,7.00
2022-11-07T22:46:59.071Z,7.10
2022-11-07T22:49:25.895Z,7.20
2022-11-07T22:51:52.730Z,7.20
2022-11-07T22:54:19.556Z,7.20
2022-11-07T22:56:46.373Z,7.20
2022-11-07T22:59:13.283Z,7.20
2022-11-07T23:01:42.417Z,7.00
2022-11-07T23:04:15.226Z,6.80
2022-11-07T23:06:42.309Z,7.00
2022-11-07T23:09:14.497Z,6.90
2022-11-07T23:11:46.489Z,6.90
2022-11-07T23:14:15.240Z,6.90
2022-11-07T23:16:51.149Z,6.80
2022-11-07T23:19:20.844Z,6.80
2022-11-07T23:21:48.934Z,6.80
2022-11-07T23:24:15.854Z,6.80
2022-11-07T23:26:42.848Z,6.70
2022-11-07T23:29:19.503Z,6.70
2022-11-07T23:31:48.223Z,6.70
2022-11-07T23:34:15.322Z,6.60
2022-11-07T23:36:44.522Z,6.70
2022-11-07T23:39:17.879Z,6.70
2022-11-07T23:41:45.096Z,6.70
2022-11-07T23:44:12.227Z,6.50
2022-11-07T23:47:14.361Z,6.50
2022-11-07T23:49:59.649Z,6.70
2022-11-07T23:52:26.382Z,6.50
2022-11-07T23:55:11.749Z,6.60
2022-11-07T23:57:57.005Z,6.50
